Terminal Aerodrome Forecast
Issued by NWS Sioux Falls, SD

Home | Current Version | Previous Version | Text Only | Print | Product List | Glossary On
Versions: 1 2 3 4 5 6 7 8 9 10 11 12 13 14 15 16
000
FTUS43 KFSD 301734
TAFFSD
TAF
KFSD 301734Z 3018/3118 32004KT P6SM BKN015
     FM302000 29003KT P6SM SCT020
     FM310800 13008KT 5SM BR SCT003 SCT020
     FM310900 15012KT P6SM BKN060=

USA.gov is the U.S. government's official web portal to all federal, state and local government web resources and services.